createdAt,value
2019-02-26T00:02:17.071Z,34.33
2019-02-26T00:04:42.312Z,38.63
2019-02-26T00:07:08.749Z,31.37
2019-02-26T00:09:35.519Z,29.17
2019-02-26T00:12:02.025Z,28.90
2019-02-26T00:14:30.315Z,31.57
2019-02-26T00:16:56.934Z,31.23
2019-02-26T00:19:23.476Z,30.47
2019-02-26T00:21:51.766Z,33.23
2019-02-26T00:24:18.418Z,29.70
2019-02-26T00:26:45.214Z,32.73
2019-02-26T00:29:11.767Z,29.30
2019-02-26T00:31:38.199Z,29.87
2019-02-26T00:34:06.002Z,31.90
2019-02-26T00:36:34.174Z,27.10
2019-02-26T00:39:03.464Z,29.00
2019-02-26T00:41:31.850Z,32.63
2019-02-26T00:43:59.943Z,28.37
2019-02-26T00:46:28.502Z,27.83
2019-02-26T00:48:56.363Z,28.73
2019-02-26T00:51:24.753Z,34.43
2019-02-26T00:53:53.314Z,29.53
2019-02-26T00:56:22.834Z,30.33
2019-02-26T00:58:50.385Z,29.53
2019-02-26T01:01:17.766Z,28.60
2019-02-26T01:03:47.102Z,31.83
2019-02-26T01:06:14.828Z,30.57
2019-02-26T01:08:44.653Z,31.80
2019-02-26T01:11:12.034Z,26.27
2019-02-26T01:13:39.517Z,31.53
2019-02-26T01:16:06.158Z,30.93
2019-02-26T01:18:32.690Z,29.40
2019-02-26T01:21:00.277Z,28.53
2019-02-26T01:23:28.946Z,26.97
2019-02-26T01:25:55.782Z,27.80
2019-02-26T01:28:22.971Z,26.13
2019-02-26T01:30:53.732Z,30.63
2019-02-26T01:33:18.973Z,29.03
2019-02-26T01:35:45.612Z,25.40
2019-02-26T01:38:14.299Z,27.73
2019-02-26T01:40:43.569Z,29.23
2019-02-26T01:43:09.111Z,29.43
2019-02-26T01:45:35.646Z,23.90
2019-02-26T01:48:04.076Z,31.33
2019-02-26T01:50:33.236Z,30.73
2019-02-26T01:53:00.994Z,26.60
2019-02-26T01:55:27.833Z,27.97
2019-02-26T01:57:58.471Z,27.47
2019-02-26T02:00:25.459Z,29.83
2019-02-26T02:02:51.231Z,29.60
2019-02-26T02:05:19.638Z,29.40
2019-02-26T02:07:48.976Z,28.90
2019-02-26T02:10:15.955Z,26.13
2019-02-26T02:12:42.396Z,26.93
2019-02-26T02:15:12.398Z,28.57
2019-02-26T02:17:40.273Z,29.33
2019-02-26T02:20:12.670Z,32.07
2019-02-26T02:22:40.008Z,26.33
2019-02-26T02:25:08.790Z,30.07
2019-02-26T02:27:35.430Z,26.90
2019-02-26T02:30:02.298Z,29.63
2019-02-26T02:32:31.733Z,29.20
2019-02-26T02:35:00.917Z,26.60
2019-02-26T02:37:29.436Z,33.77
2019-02-26T02:39:55.795Z,29.27
2019-02-26T02:42:22.226Z,29.90
2019-02-26T02:44:49.387Z,32.37
2019-02-26T02:47:17.146Z,27.50
2019-02-26T02:49:44.363Z,29.50
2019-02-26T02:52:11.846Z,30.60
2019-02-26T02:54:41.080Z,28.80
2019-02-26T02:57:09.456Z,27.80
2019-02-26T02:59:37.371Z,28.07
2019-02-26T03:02:04.034Z,29.93
2019-02-26T03:04:31.731Z,29.27
2019-02-26T03:07:00.699Z,33.43
2019-02-26T03:09:27.327Z,27.87
2019-02-26T03:11:55.025Z,30.87
2019-02-26T03:14:21.628Z,26.60
2019-02-26T03:16:50.827Z,33.10
2019-02-26T03:19:17.018Z,32.50
2019-02-26T03:21:47.170Z,31.63
2019-02-26T03:24:13.815Z,29.97
2019-02-26T03:26:41.374Z,28.30
2019-02-26T03:29:08.325Z,27.83
2019-02-26T03:31:40.533Z,31.03
2019-02-26T03:34:10.579Z,31.83
2019-02-26T03:36:34.193Z,30.03
2019-02-26T03:39:02.816Z,29.43
2019-02-26T03:41:31.237Z,28.40
2019-02-26T03:44:00.553Z,28.97
2019-02-26T03:46:26.361Z,28.57
2019-02-26T03:48:53.201Z,27.43
2019-02-26T03:51:19.637Z,29.90
2019-02-26T03:53:46.067Z,30.90
2019-02-26T03:56:14.894Z,29.63
2019-02-26T03:58:41.086Z,29.13
2019-02-26T04:01:10.219Z,34.10
2019-02-26T04:03:37.581Z,28.33
2019-02-26T04:06:08.771Z,25.57
2019-02-26T04:08:33.474Z,31.47
2019-02-26T04:11:01.973Z,31.07
2019-02-26T04:13:28.291Z,32.50
2019-02-26T04:15:57.113Z,26.33
2019-02-26T04:18:23.203Z,26.37
2019-02-26T04:20:49.635Z,28.97
2019-02-26T04:23:18.722Z,30.20
2019-02-26T04:25:57.688Z,30.20
2019-02-26T04:28:33.526Z,30.50
2019-02-26T04:31:18.277Z,28.43
2019-02-26T04:34:05.306Z,27.03
2019-02-26T04:36:51.085Z,32.70
2019-02-26T04:39:30.214Z,24.80
2019-02-26T04:42:32.546Z,31.00
2019-02-26T04:45:25.648Z,27.60
2019-02-26T04:47:58.299Z,25.40
2019-02-26T04:50:28.650Z,28.70
2019-02-26T04:52:52.626Z,26.97
2019-02-26T04:55:19.519Z,30.03
2019-02-26T04:57:48.519Z,29.07
2019-02-26T05:00:14.391Z,28.47
2019-02-26T05:02:41.439Z,32.67
2019-02-26T05:05:08.179Z,29.50
2019-02-26T05:07:35.464Z,25.87
2019-02-26T05:10:04.523Z,31.50
2019-02-26T05:12:34.233Z,28.10
2019-02-26T05:14:59.436Z,28.00
2019-02-26T05:17:29.631Z,29.00
2019-02-26T05:19:54.351Z,28.10
2019-02-26T05:22:22.703Z,29.80
2019-02-26T05:24:50.290Z,30.07
2019-02-26T05:27:19.783Z,28.03
2019-02-26T05:29:48.818Z,29.03
2019-02-26T05:32:14.507Z,26.63
2019-02-26T05:34:44.783Z,32.27
2019-02-26T05:37:11.018Z,28.40
2019-02-26T05:39:37.810Z,26.70
2019-02-26T05:42:06.316Z,31.43
2019-02-26T05:44:32.718Z,32.13
2019-02-26T05:47:01.360Z,33.73
2019-02-26T05:49:27.580Z,31.93
2019-02-26T05:51:56.079Z,27.53
2019-02-26T05:54:24.365Z,29.17
2019-02-26T05:56:50.823Z,28.43
2019-02-26T05:59:17.966Z,28.17
2019-02-26T06:01:46.604Z,30.03
2019-02-26T06:04:14.946Z,26.63
2019-02-26T06:06:42.704Z,33.67
2019-02-26T06:09:09.137Z,30.23
2019-02-26T06:11:38.528Z,31.97
2019-02-26T06:14:07.139Z,26.77
2019-02-26T06:16:33.046Z,24.90
2019-02-26T06:18:59.581Z,31.10
2019-02-26T06:21:26.221Z,25.30
2019-02-26T06:23:53.886Z,24.60
2019-02-26T06:26:20.557Z,25.53
2019-02-26T06:28:52.903Z,25.70
2019-02-26T06:31:22.220Z,23.60
2019-02-26T06:33:50.535Z,23.87
2019-02-26T06:36:21.515Z,28.57
2019-02-26T06:38:49.700Z,27.87
2019-02-26T06:41:17.039Z,26.07
2019-02-26T06:43:47.590Z,25.13
2019-02-26T06:46:14.026Z,27.30
2019-02-26T06:48:40.790Z,27.00
2019-02-26T06:51:07.587Z,26.80
2019-02-26T06:53:34.225Z,28.13
2019-02-26T06:56:01.269Z,25.60
2019-02-26T06:58:28.012Z,25.03
2019-02-26T07:00:55.777Z,26.43
2019-02-26T07:03:24.784Z,27.30
2019-02-26T07:05:50.796Z,28.33
2019-02-26T07:08:18.910Z,27.00
2019-02-26T07:10:45.608Z,32.73
2019-02-26T07:13:14.066Z,29.00
2019-02-26T07:15:40.596Z,27.03
2019-02-26T07:18:10.280Z,25.53
2019-02-26T07:20:39.952Z,31.20
2019-02-26T07:23:08.118Z,29.17
2019-02-26T07:25:36.270Z,25.43
2019-02-26T07:28:03.011Z,28.40
2019-02-26T07:30:32.646Z,29.47
2019-02-26T07:32:59.484Z,27.07
2019-02-26T07:35:28.171Z,29.53
2019-02-26T07:37:56.679Z,27.40
2019-02-26T07:40:22.992Z,26.03
2019-02-26T07:42:51.268Z,26.40
2019-02-26T07:45:19.940Z,35.83
2019-02-26T07:47:49.147Z,24.80
2019-02-26T07:50:17.420Z,32.60
2019-02-26T07:52:44.090Z,26.30
2019-02-26T07:55:12.792Z,24.83
2019-02-26T07:57:40.549Z,25.77
2019-02-26T08:00:11.969Z,27.77
2019-02-26T08:02:38.503Z,28.67
2019-02-26T08:05:05.752Z,26.30
2019-02-26T08:07:32.289Z,29.17
2019-02-26T08:09:58.827Z,26.93
2019-02-26T08:12:25.258Z,28.27
2019-02-26T08:14:51.800Z,30.50
2019-02-26T08:17:18.330Z,27.40
2019-02-26T08:19:46.858Z,27.57
2019-02-26T08:22:13.140Z,28.10
2019-02-26T08:24:39.984Z,27.47
2019-02-26T08:27:08.537Z,26.53
2019-02-26T08:29:36.202Z,29.13
2019-02-26T08:32:03.074Z,27.10
2019-02-26T08:34:29.917Z,29.47
2019-02-26T08:36:56.351Z,26.10
2019-02-26T08:39:23.194Z,24.53
2019-02-26T08:42:01.300Z,29.20
2019-02-26T08:44:28.220Z,31.87
2019-02-26T08:46:54.986Z,22.07
2019-02-26T08:49:22.529Z,24.70
2019-02-26T08:51:49.184Z,21.23
2019-02-26T08:54:20.789Z,32.70
2019-02-26T08:56:44.005Z,22.03
2019-02-26T08:59:10.431Z,27.13
2019-02-26T09:01:36.865Z,28.50
2019-02-26T09:04:03.412Z,37.67
2019-02-26T09:06:30.039Z,33.60
2019-02-26T09:08:57.924Z,31.67
2019-02-26T09:11:26.223Z,29.60
2019-02-26T09:13:53.248Z,37.97
2019-02-26T09:16:22.264Z,28.57
2019-02-26T09:18:49.170Z,30.80
2019-02-26T09:21:15.633Z,27.00
2019-02-26T09:23:42.139Z,29.83
2019-02-26T09:26:08.779Z,28.43
2019-02-26T09:28:35.214Z,30.23
2019-02-26T09:31:04.209Z,29.60
2019-02-26T09:33:32.706Z,31.93
2019-02-26T09:35:59.153Z,33.47
2019-02-26T09:38:25.760Z,35.03
2019-02-26T09:40:54.596Z,40.70
2019-02-26T09:43:22.528Z,41.90
2019-02-26T09:45:50.605Z,36.70
2019-02-26T09:48:19.421Z,38.30
2019-02-26T09:50:48.305Z,35.57
2019-02-26T09:53:14.702Z,33.20
2019-02-26T09:55:41.446Z,40.47
2019-02-26T09:58:09.005Z,38.13
2019-02-26T10:00:35.437Z,38.07
2019-02-26T10:03:03.036Z,35.83
2019-02-26T10:05:30.455Z,37.03
2019-02-26T10:08:02.034Z,34.57
2019-02-26T10:10:29.170Z,37.83
2019-02-26T10:12:57.330Z,33.37
2019-02-26T10:15:23.662Z,30.73
2019-02-26T10:17:50.097Z,40.93
2019-02-26T10:20:22.801Z,35.53
2019-02-26T10:22:49.414Z,37.53
2019-02-26T10:25:16.156Z,38.30
2019-02-26T10:27:43.595Z,38.07
2019-02-26T10:30:14.419Z,35.77
2019-02-26T10:32:44.036Z,38.70
2019-02-26T10:35:15.895Z,38.17
2019-02-26T10:37:43.739Z,35.10
2019-02-26T10:40:12.150Z,33.27
2019-02-26T10:42:39.967Z,37.40
2019-02-26T10:45:08.662Z,39.17
2019-02-26T10:47:35.297Z,43.03
2019-02-26T10:50:01.893Z,47.10
2019-02-26T10:52:28.784Z,41.67
2019-02-26T10:54:55.396Z,40.70
2019-02-26T10:57:21.911Z,36.00
2019-02-26T10:59:48.447Z,37.87
2019-02-26T11:02:17.289Z,39.87
2019-02-26T11:04:43.927Z,32.73
2019-02-26T11:07:14.121Z,37.27
2019-02-26T11:09:40.222Z,33.70
2019-02-26T11:12:08.560Z,44.67
2019-02-26T11:14:36.431Z,38.17
2019-02-26T11:17:03.523Z,38.80
2019-02-26T11:19:33.847Z,43.17
2019-02-26T11:22:00.860Z,45.93
2019-02-26T11:24:28.795Z,46.47
2019-02-26T11:26:55.343Z,42.47
2019-02-26T11:29:21.830Z,46.80
2019-02-26T11:31:49.739Z,39.77
2019-02-26T11:34:16.334Z,40.87
2019-02-26T11:36:42.869Z,42.63
2019-02-26T11:39:11.920Z,35.20
2019-02-26T11:41:38.198Z,35.27
2019-02-26T11:44:10.031Z,45.37
2019-02-26T11:46:34.404Z,36.57
2019-02-26T11:49:01.200Z,39.07
2019-02-26T11:51:36.599Z,36.87
2019-02-26T11:53:56.100Z,42.47
2019-02-26T11:56:25.159Z,34.97
2019-02-26T11:58:51.116Z,38.43
2019-02-26T12:01:17.854Z,40.37
2019-02-26T12:03:44.604Z,34.63
2019-02-26T12:06:13.908Z,34.53
2019-02-26T12:08:42.412Z,38.07
2019-02-26T12:11:13.503Z,41.20
2019-02-26T12:13:39.539Z,37.73
2019-02-26T12:16:05.906Z,37.40
2019-02-26T12:18:36.734Z,35.77
2019-02-26T12:21:05.369Z,38.57
2019-02-26T12:23:31.322Z,38.47
2019-02-26T12:25:59.264Z,36.53
2019-02-26T12:28:28.311Z,40.90
2019-02-26T12:30:54.618Z,34.03
2019-02-26T12:33:21.055Z,34.00
2019-02-26T12:35:47.583Z,33.27
2019-02-26T12:38:20.735Z,39.67
2019-02-26T12:40:44.715Z,35.20
2019-02-26T12:43:12.523Z,36.60
2019-02-26T12:45:40.665Z,38.97
2019-02-26T12:48:10.213Z,35.07
2019-02-26T12:50:36.634Z,29.87
2019-02-26T12:53:05.317Z,32.93
2019-02-26T12:55:35.104Z,32.20
2019-02-26T12:58:00.237Z,40.60
2019-02-26T13:00:26.668Z,36.17
2019-02-26T13:02:54.942Z,39.97
2019-02-26T13:05:23.022Z,37.20
2019-02-26T13:07:49.868Z,36.53
2019-02-26T13:10:22.296Z,35.23
2019-02-26T13:12:53.856Z,36.03
2019-02-26T13:15:22.983Z,37.20
2019-02-26T13:17:54.173Z,33.50
2019-02-26T13:20:23.835Z,36.77
2019-02-26T13:22:50.277Z,36.77
2019-02-26T13:25:17.843Z,32.60
2019-02-26T13:27:48.085Z,34.97
2019-02-26T13:30:19.503Z,33.73
2019-02-26T13:33:05.341Z,35.83
2019-02-26T13:35:14.519Z,33.57
2019-02-26T13:37:42.442Z,39.43
2019-02-26T13:40:14.453Z,29.37
2019-02-26T13:42:40.991Z,30.07
2019-02-26T13:45:10.850Z,43.47
2019-02-26T13:47:37.543Z,42.90
2019-02-26T13:50:10.505Z,41.43
2019-02-26T13:52:38.807Z,33.40
2019-02-26T13:55:08.108Z,33.57
2019-02-26T13:57:34.747Z,34.90
2019-02-26T14:00:01.287Z,35.40
2019-02-26T14:02:27.719Z,27.03
2019-02-26T14:04:54.258Z,32.37
2019-02-26T14:07:20.790Z,33.20
2019-02-26T14:09:47.220Z,33.70
2019-02-26T14:12:13.962Z,29.33
2019-02-26T14:14:40.706Z,32.67
2019-02-26T14:17:07.136Z,22.33
2019-02-26T14:19:33.569Z,22.10
2019-02-26T14:22:01.643Z,22.20
2019-02-26T14:24:28.278Z,24.80
2019-02-26T14:26:55.948Z,24.97
2019-02-26T14:29:22.477Z,32.63
2019-02-26T14:31:48.910Z,23.80
2019-02-26T14:34:15.572Z,30.47
2019-02-26T14:36:42.086Z,19.10
2019-02-26T14:39:10.466Z,22.97
2019-02-26T14:41:37.208Z,20.77
2019-02-26T14:44:03.742Z,24.20
2019-02-26T14:46:30.631Z,26.93
2019-02-26T14:48:57.221Z,24.18
2019-02-26T14:51:23.758Z,23.07
2019-02-26T14:53:50.192Z,25.47
2019-02-26T14:56:16.736Z,25.27
2019-02-26T14:58:43.367Z,22.07
2019-02-26T15:01:10.004Z,24.63
2019-02-26T15:03:36.746Z,22.60
2019-02-26T15:06:03.311Z,24.98
2019-02-26T15:08:29.817Z,27.20
2019-02-26T15:10:56.560Z,22.73
2019-02-26T15:13:23.093Z,28.20
2019-02-26T15:15:49.632Z,27.17
2019-02-26T15:18:16.166Z,23.50
2019-02-26T15:20:44.236Z,25.43
2019-02-26T15:23:10.671Z,25.70
2019-02-26T15:25:37.924Z,22.22
2019-02-26T15:28:05.528Z,24.20
2019-02-26T15:30:32.224Z,26.87
2019-02-26T15:32:58.657Z,23.27
2019-02-26T15:35:25.500Z,22.35
2019-02-26T15:37:52.039Z,24.43
2019-02-26T15:40:20.833Z,24.77
2019-02-26T15:42:52.374Z,22.62
2019-02-26T15:45:24.021Z,27.80
2019-02-26T15:47:50.777Z,25.55
2019-02-26T15:50:18.234Z,24.83
2019-02-26T15:52:44.666Z,27.42
2019-02-26T15:55:13.764Z,26.80
2019-02-26T15:57:40.400Z,26.80
2019-02-26T16:00:10.994Z,27.90
2019-02-26T16:02:37.570Z,33.13
2019-02-26T16:05:06.974Z,26.90
2019-02-26T16:07:33.409Z,27.23
2019-02-26T16:09:59.945Z,26.93
2019-02-26T16:12:26.384Z,29.47
2019-02-26T16:14:52.912Z,29.87
2019-02-26T16:17:19.373Z,35.65
2019-02-26T16:19:45.886Z,41.97
2019-02-26T16:22:12.525Z,32.93
2019-02-26T16:24:39.063Z,32.33
2019-02-26T16:27:05.667Z,33.73
2019-02-26T16:29:32.128Z,31.07
2019-02-26T16:31:58.563Z,34.23
2019-02-26T16:34:25.199Z,33.27
2019-02-26T16:36:51.736Z,37.23
2019-02-26T16:39:18.170Z,32.50
2019-02-26T16:41:44.602Z,28.27
2019-02-26T16:44:11.343Z,30.63
2019-02-26T16:46:39.568Z,33.53
2019-02-26T16:49:06.466Z,33.57
2019-02-26T16:51:32.900Z,30.07
2019-02-26T16:53:59.744Z,34.70
2019-02-26T16:56:26.276Z,33.10
2019-02-26T16:58:54.143Z,32.67
2019-02-26T17:01:22.485Z,29.93
2019-02-26T17:03:49.058Z,33.87
2019-02-26T17:06:15.594Z,32.70
2019-02-26T17:08:42.027Z,28.97
2019-02-26T17:11:08.460Z,32.00
2019-02-26T17:13:35.100Z,33.00
2019-02-26T17:16:01.638Z,33.97
2019-02-26T17:18:29.299Z,32.87
2019-02-26T17:20:56.873Z,33.53
2019-02-26T17:23:23.906Z,31.43
2019-02-26T17:25:50.446Z,35.73
2019-02-26T17:28:17.086Z,37.03
2019-02-26T17:30:43.932Z,38.23
2019-02-26T17:33:13.205Z,37.90
2019-02-26T17:35:39.148Z,34.93
2019-02-26T17:38:05.684Z,37.07
2019-02-26T17:40:36.375Z,43.13
2019-02-26T17:43:00.599Z,38.00
2019-02-26T17:45:31.413Z,38.23
2019-02-26T17:47:57.868Z,35.07
2019-02-26T17:50:36.795Z,33.30
2019-02-26T17:53:03.221Z,40.13
2019-02-26T17:55:29.766Z,43.80
2019-02-26T17:57:56.300Z,37.80
2019-02-26T18:00:25.121Z,38.63
2019-02-26T18:02:51.623Z,35.60
2019-02-26T18:05:19.900Z,39.60
2019-02-26T18:07:46.436Z,38.67
2019-02-26T18:10:15.774Z,35.53
2019-02-26T18:12:42.682Z,37.60
2019-02-26T18:15:11.060Z,34.40
2019-02-26T18:17:37.687Z,37.03
2019-02-26T18:20:07.781Z,35.23
2019-02-26T18:22:34.253Z,35.73
2019-02-26T18:25:00.994Z,40.20
2019-02-26T18:27:30.256Z,37.63
2019-02-26T18:29:56.117Z,38.37
2019-02-26T18:32:22.651Z,40.60
2019-02-26T18:34:49.288Z,37.73
2019-02-26T18:37:17.706Z,36.90
2019-02-26T18:39:44.308Z,39.30
2019-02-26T18:42:10.841Z,38.07
2019-02-26T18:44:37.319Z,36.63
2019-02-26T18:47:04.816Z,37.63
2019-02-26T18:49:32.189Z,38.40
2019-02-26T18:51:58.623Z,40.60
2019-02-26T18:54:25.073Z,36.77
2019-02-26T18:56:51.592Z,44.27
2019-02-26T18:59:21.209Z,42.07
2019-02-26T19:01:46.408Z,46.00
2019-02-26T19:04:16.263Z,45.80
2019-02-26T19:06:43.265Z,44.80
2019-02-26T19:09:12.281Z,44.60
2019-02-26T19:11:38.897Z,42.57
2019-02-26T19:14:08.878Z,40.80
2019-02-26T19:16:33.742Z,48.63
2019-02-26T19:19:00.247Z,41.77
2019-02-26T19:21:26.788Z,42.53
2019-02-26T19:23:53.216Z,43.73
2019-02-26T19:26:19.674Z,42.47
2019-02-26T19:28:46.185Z,41.30
2019-02-26T19:31:12.736Z,42.57
2019-02-26T19:33:39.235Z,47.23
2019-02-26T19:36:05.848Z,39.70
2019-02-26T19:38:32.433Z,45.97
2019-02-26T19:41:02.469Z,45.77
2019-02-26T19:43:28.983Z,39.67
2019-02-26T19:45:55.830Z,44.80
2019-02-26T19:48:22.371Z,42.87
2019-02-26T19:50:49.012Z,47.17
2019-02-26T19:53:19.227Z,43.77
2019-02-26T19:55:49.768Z,44.40
2019-02-26T19:58:16.290Z,42.37
2019-02-26T20:00:42.826Z,46.27
2019-02-26T20:03:09.262Z,42.03
2019-02-26T20:05:35.796Z,42.10
2019-02-26T20:08:04.884Z,44.37
2019-02-26T20:10:30.917Z,40.70
2019-02-26T20:13:00.558Z,42.10
2019-02-26T20:15:26.141Z,39.03
2019-02-26T20:17:52.674Z,40.23
2019-02-26T20:20:20.761Z,39.73
2019-02-26T20:22:47.300Z,41.83
2019-02-26T20:25:18.429Z,46.57
2019-02-26T20:27:45.169Z,43.37
2019-02-26T20:30:14.879Z,40.00
2019-02-26T20:32:41.518Z,42.10
2019-02-26T20:35:11.930Z,46.13
2019-02-26T20:37:38.378Z,43.63
2019-02-26T20:40:08.414Z,46.07
2019-02-26T20:42:34.928Z,44.23
2019-02-26T20:45:01.465Z,45.87
2019-02-26T20:47:31.327Z,41.20
2019-02-26T20:49:56.382Z,39.70
2019-02-26T20:52:22.918Z,38.17
2019-02-26T20:54:49.760Z,46.63
2019-02-26T20:57:16.296Z,45.07
2019-02-26T20:59:42.729Z,42.73
2019-02-26T21:02:09.163Z,42.47
2019-02-26T21:04:35.697Z,46.53
2019-02-26T21:07:02.234Z,41.67
2019-02-26T21:09:28.669Z,47.60
2019-02-26T21:11:55.860Z,43.57
2019-02-26T21:14:22.866Z,39.93
2019-02-26T21:16:53.454Z,39.80
2019-02-26T21:19:17.686Z,43.40
2019-02-26T21:21:44.112Z,43.87
2019-02-26T21:24:10.753Z,46.50
2019-02-26T21:26:37.288Z,39.03
2019-02-26T21:29:06.277Z,38.57
2019-02-26T21:31:32.214Z,45.17
2019-02-26T21:33:58.739Z,42.57
2019-02-26T21:36:27.752Z,45.87
2019-02-26T21:38:54.079Z,41.47
2019-02-26T21:41:21.026Z,39.83
2019-02-26T21:43:48.985Z,41.80
2019-02-26T21:46:15.515Z,44.63
2019-02-26T21:48:41.947Z,39.83
2019-02-26T21:51:08.486Z,39.93
2019-02-26T21:53:35.019Z,42.17
2019-02-26T21:56:03.378Z,39.10
2019-02-26T21:58:29.843Z,39.70
2019-02-26T22:00:56.268Z,39.50
2019-02-26T22:03:24.835Z,43.60
2019-02-26T22:05:51.179Z,40.10
2019-02-26T22:08:17.716Z,41.00
2019-02-26T22:10:44.252Z,40.43
2019-02-26T22:13:10.788Z,45.73
2019-02-26T22:15:37.324Z,41.40
2019-02-26T22:18:03.757Z,39.90
2019-02-26T22:20:36.205Z,44.70
2019-02-26T22:23:00.464Z,43.97
2019-02-26T22:25:27.052Z,51.10
2019-02-26T22:27:53.592Z,43.07
2019-02-26T22:30:22.023Z,43.17
2019-02-26T22:32:48.503Z,45.63
2019-02-26T22:35:15.040Z,44.03
2019-02-26T22:37:42.114Z,48.13
2019-02-26T22:40:10.773Z,41.27
2019-02-26T22:42:38.824Z,43.97
2019-02-26T22:45:08.558Z,36.47
2019-02-26T22:47:34.991Z,44.87
2019-02-26T22:50:03.157Z,43.93
2019-02-26T22:52:31.253Z,38.87
2019-02-26T22:54:57.876Z,42.80
2019-02-26T22:57:24.717Z,40.03
2019-02-26T22:59:51.154Z,41.83
2019-02-26T23:02:19.125Z,35.60
2019-02-26T23:04:45.768Z,40.80
2019-02-26T23:07:12.501Z,39.57
2019-02-26T23:09:39.223Z,42.27
2019-02-26T23:12:07.313Z,43.77
2019-02-26T23:14:35.904Z,41.87
2019-02-26T23:17:03.763Z,37.30
2019-02-26T23:19:30.198Z,42.93
2019-02-26T23:21:56.840Z,39.87
2019-02-26T23:24:27.757Z,41.87
2019-02-26T23:26:52.166Z,37.37
2019-02-26T23:29:18.698Z,38.63
2019-02-26T23:31:45.641Z,40.40
2019-02-26T23:34:12.792Z,35.07
2019-02-26T23:36:39.636Z,37.57
2019-02-26T23:39:07.134Z,40.37
2019-02-26T23:41:33.851Z,41.77
2019-02-26T23:44:00.676Z,40.87
2019-02-26T23:46:29.561Z,41.20
2019-02-26T23:48:55.489Z,34.47
2019-02-26T23:51:22.229Z,34.20
2019-02-26T23:53:48.665Z,39.07
2019-02-26T23:56:16.779Z,38.87
2019-02-26T23:58:43.680Z,37.27
